Time;durP1;ratioP1;P1;durP2;ratioP2;P2;SDS_P1;SDS_P2;PMS_P1;PMS_P2;Temp;Humidity;BMP_temperature;BMP_pressure;BME280_temperature;BME280_humidity;BME280_pressure;Samples;Min_cycle;Max_cycle;Signal;HPM_P1;HPM_P2
2021/04/30 00:01:29;;;;;;;43.87;39.67;;;8.30;99.90;;;;;;4926216;29;20189;-81
2021/04/30 00:03:56;;;;;;;40.87;37.00;;;8.40;99.90;;;;;;4925875;29;20523;-81
2021/04/30 00:06:23;;;;;;;41.37;37.37;;;8.30;99.90;;;;;;4925146;29;20472;-80
2021/04/30 00:08:50;;;;;;;43.87;39.47;;;8.30;99.90;;;;;;4926938;29;20428;-81
2021/04/30 00:11:18;;;;;;;42.10;38.20;;;8.30;99.90;;;;;;4927262;29;21073;-81
2021/04/30 00:13:45;;;;;;;40.33;36.37;;;8.30;99.90;;;;;;4935660;29;20506;-81
2021/04/30 00:16:13;;;;;;;43.80;39.50;;;8.30;99.90;;;;;;4934966;29;20455;-81
2021/04/30 00:18:41;;;;;;;39.20;35.17;;;8.30;99.90;;;;;;4936352;29;20821;-81
2021/04/30 00:21:08;;;;;;;39.93;36.20;;;8.30;99.90;;;;;;4935660;29;20444;-81
2021/04/30 00:23:35;;;;;;;38.63;34.63;;;8.30;99.90;;;;;;4930958;29;20502;-81
2021/04/30 00:26:04;;;;;;;39.03;35.40;;;8.30;99.90;;;;;;4925368;29;20454;-81
2021/04/30 00:28:32;;;;;;;40.63;36.60;;;8.30;99.90;;;;;;4923005;29;20488;-81
2021/04/30 00:31:00;;;;;;;37.80;34.20;;;8.30;99.90;;;;;;4924608;29;20578;-81
2021/04/30 00:33:28;;;;;;;34.87;31.63;;;8.30;99.90;;;;;;4923888;29;20554;-81
2021/04/30 00:35:56;;;;;;;36.80;33.33;;;8.30;99.90;;;;;;4924129;29;20491;-81
2021/04/30 00:38:24;;;;;;;35.60;32.40;;;8.30;99.90;;;;;;4924319;29;20459;-81
2021/04/30 00:40:53;;;;;;;35.30;32.07;;;8.30;99.90;;;;;;4925134;29;20476;-81
2021/04/30 00:43:21;;;;;;;35.25;32.05;;;8.30;99.90;;;;;;4924822;29;20451;-82
2021/04/30 00:45:52;;;;;;;31.13;27.90;;;8.40;99.90;;;;;;4925102;29;20196;-82
2021/04/30 00:48:20;;;;;;;34.37;30.87;;;8.30;99.90;;;;;;4924100;29;20453;-81
2021/04/30 00:50:48;;;;;;;33.20;29.90;;;8.30;99.90;;;;;;4923381;29;20660;-81
2021/04/30 00:53:16;;;;;;;34.42;31.13;;;8.30;99.90;;;;;;4924037;29;20447;-81
2021/04/30 00:55:43;;;;;;;33.30;30.00;;;8.40;99.90;;;;;;4924503;29;20228;-81
2021/04/30 00:58:11;;;;;;;32.60;29.30;;;8.40;99.90;;;;;;4923593;29;20873;-80
2021/04/30 01:00:38;;;;;;;31.63;28.70;;;8.30;99.90;;;;;;4919606;29;20476;-80
2021/04/30 01:03:07;;;;;;;34.93;31.70;;;8.40;99.90;;;;;;4919694;29;20507;-80
2021/04/30 01:05:34;;;;;;;34.30;31.10;;;8.30;99.90;;;;;;4919393;29;20534;-80
2021/04/30 01:08:02;;;;;;;35.00;31.57;;;8.30;99.90;;;;;;4918703;29;20498;-77
2021/04/30 01:10:30;;;;;;;33.50;30.50;;;8.30;99.90;;;;;;4917596;29;20499;-78
2021/04/30 01:12:57;;;;;;;34.37;31.17;;;8.30;99.90;;;;;;4917002;29;20925;-78
2021/04/30 01:15:25;;;;;;;34.07;30.87;;;8.30;99.90;;;;;;4917072;29;20567;-78
2021/04/30 01:17:52;;;;;;;34.93;31.50;;;8.30;99.90;;;;;;4917202;29;20462;-78
2021/04/30 01:20:20;;;;;;;34.80;31.13;;;8.30;99.90;;;;;;4918101;29;20450;-78
2021/04/30 01:22:49;;;;;;;35.90;32.40;;;8.30;99.90;;;;;;4916872;29;20507;-78
2021/04/30 01:25:18;;;;;;;36.73;32.77;;;8.30;99.90;;;;;;4918223;29;20480;-78
2021/04/30 01:27:46;;;;;;;37.60;34.10;;;8.30;99.90;;;;;;4916598;29;20536;-78
2021/04/30 01:30:15;;;;;;;36.70;33.20;;;8.30;99.90;;;;;;4916729;29;20447;-78
2021/04/30 01:32:43;;;;;;;38.23;34.30;;;8.30;99.90;;;;;;4916556;29;20493;-78
2021/04/30 01:35:11;;;;;;;37.03;33.43;;;8.30;99.90;;;;;;4916378;29;20878;-78
2021/04/30 01:37:39;;;;;;;37.23;33.40;;;8.30;99.90;;;;;;4918051;29;20458;-78
2021/04/30 01:40:13;;;;;;;36.83;33.23;;;8.30;99.90;;;;;;4918893;29;20446;-78
2021/04/30 01:42:57;;;;;;;38.83;34.83;;;8.30;99.90;;;;;;4919965;29;20535;-78
2021/04/30 01:45:25;;;;;;;37.43;33.87;;;8.30;99.90;;;;;;4925439;29;20811;-78
2021/04/30 01:47:52;;;;;;;38.90;35.20;;;8.30;99.90;;;;;;4920720;29;20551;-78
2021/04/30 01:50:20;;;;;;;40.77;36.33;;;8.30;99.90;;;;;;4916564;29;20515;-78
2021/04/30 01:52:47;;;;;;;37.80;33.83;;;8.30;99.90;;;;;;4920144;29;21085;-78
2021/04/30 01:55:15;;;;;;;38.97;35.07;;;8.30;99.90;;;;;;4919799;29;20529;-78
2021/04/30 01:57:44;;;;;;;39.43;35.47;;;8.30;99.90;;;;;;4917437;29;20460;-78
2021/04/30 02:00:20;;;;;;;39.77;35.67;;;8.30;99.90;;;;;;4916531;29;20530;-78
2021/04/30 02:02:48;;;;;;;40.80;36.70;;;8.30;99.90;;;;;;4924587;29;20494;-81
2021/04/30 02:05:15;;;;;;;39.40;35.50;;;8.30;99.90;;;;;;4922065;29;20451;-81
2021/04/30 02:07:43;;;;;;;38.47;34.67;;;8.30;99.90;;;;;;4924901;29;20909;-79
2021/04/30 02:10:16;;;;;;;44.03;36.90;;;8.30;99.90;;;;;;4921122;29;20455;-80
2021/04/30 02:12:44;;;;;;;43.93;39.33;;;8.30;99.90;;;;;;4916320;29;20550;-78
2021/04/30 02:15:12;;;;;;;41.30;37.10;;;8.30;99.90;;;;;;4916988;29;20522;-78
2021/04/30 02:17:40;;;;;;;41.63;37.17;;;8.30;99.90;;;;;;4922129;29;20453;-78
2021/04/30 02:20:09;;;;;;;39.27;35.43;;;8.30;99.90;;;;;;4921949;29;20449;-78
2021/04/30 02:22:38;;;;;;;43.13;38.63;;;8.30;99.90;;;;;;4918165;29;20549;-78
2021/04/30 02:25:08;;;;;;;38.93;34.27;;;8.30;99.90;;;;;;4921624;29;20507;-78
2021/04/30 02:27:36;;;;;;;41.60;35.13;;;8.40;99.90;;;;;;4920513;29;20487;-78
2021/04/30 02:30:04;;;;;;;42.92;38.42;;;8.30;99.90;;;;;;4916552;29;20476;-79
2021/04/30 02:32:33;;;;;;;41.90;37.57;;;8.30;99.90;;;;;;4916259;29;20615;-78
2021/04/30 02:35:01;;;;;;;43.00;38.60;;;8.30;99.90;;;;;;4917061;29;20451;-79
2021/04/30 02:37:28;;;;;;;40.97;36.80;;;8.30;99.90;;;;;;4918368;29;20455;-79
2021/04/30 02:39:55;;;;;;;42.07;37.77;;;8.20;99.90;;;;;;4921746;29;20484;-80
2021/04/30 02:42:22;;;;;;;42.50;38.20;;;8.20;99.90;;;;;;4925804;29;20473;-80
2021/04/30 02:44:51;;;;;;;44.97;40.10;;;8.10;99.90;;;;;;4923852;29;20459;-79
2021/04/30 02:47:20;;;;;;;42.80;38.20;;;8.10;99.90;;;;;;4925125;29;20499;-80
2021/04/30 02:49:47;;;;;;;42.00;37.90;;;8.10;99.90;;;;;;4927143;29;20857;-80
2021/04/30 02:52:16;;;;;;;42.47;38.17;;;8.10;99.90;;;;;;4929652;29;20493;-80
2021/04/30 02:54:44;;;;;;;42.23;37.67;;;8.00;99.90;;;;;;4932197;29;20475;-80
2021/04/30 02:57:13;;;;;;;43.50;38.83;;;8.00;99.90;;;;;;4930764;29;20463;-80
2021/04/30 02:59:41;;;;;;;44.57;40.10;;;8.00;99.90;;;;;;4931354;29;20822;-79
2021/04/30 03:02:09;;;;;;;41.37;37.07;;;8.00;99.90;;;;;;4931570;29;20539;-79
2021/04/30 03:04:38;;;;;;;43.27;38.57;;;8.00;99.90;;;;;;4931072;29;20861;-79
2021/04/30 03:07:05;;;;;;;43.93;39.53;;;7.90;99.90;;;;;;4931999;29;20530;-79
2021/04/30 03:09:33;;;;;;;43.47;39.07;;;7.90;99.90;;;;;;4928113;29;20443;-79
2021/04/30 03:12:00;;;;;;;42.47;38.10;;;7.90;99.90;;;;;;4919311;29;20827;-79
2021/04/30 03:14:28;;;;;;;43.20;38.80;;;7.80;99.90;;;;;;4921185;29;20455;-78
2021/04/30 03:16:55;;;;;;;44.80;40.07;;;7.80;99.90;;;;;;4920916;29;20463;-78
2021/04/30 03:19:24;;;;;;;41.83;37.63;;;7.80;99.90;;;;;;4919807;29;20452;-78
2021/04/30 03:21:52;;;;;;;42.57;38.20;;;7.80;99.90;;;;;;4922802;29;20940;-79
2021/04/30 03:24:19;;;;;;;40.60;36.57;;;7.70;99.90;;;;;;4924984;29;20547;-78
2021/04/30 03:26:46;;;;;;;41.83;37.50;;;7.70;99.90;;;;;;4928695;29;20534;-79
2021/04/30 03:29:13;;;;;;;40.27;36.20;;;7.70;99.90;;;;;;4930893;29;20877;-79
2021/04/30 03:31:40;;;;;;;41.27;36.97;;;7.70;99.90;;;;;;4925998;29;20475;-79
2021/04/30 03:34:07;;;;;;;40.47;36.33;;;7.60;99.90;;;;;;4925041;29;20464;-79
2021/04/30 03:36:35;;;;;;;43.17;38.47;;;7.60;99.90;;;;;;4922083;29;20544;-79
2021/04/30 03:39:03;;;;;;;40.20;36.10;;;7.60;99.90;;;;;;4920844;29;20465;-79
2021/04/30 03:41:33;;;;;;;42.03;37.57;;;7.50;99.90;;;;;;4920761;29;20458;-78
2021/04/30 03:44:00;;;;;;;39.37;35.27;;;7.50;99.90;;;;;;4920734;29;20573;-78
2021/04/30 03:46:27;;;;;;;40.10;35.73;;;7.50;99.90;;;;;;4923526;29;20482;-79
2021/04/30 03:48:55;;;;;;;39.17;35.27;;;7.50;99.90;;;;;;4925999;29;20467;-79
2021/04/30 03:51:22;;;;;;;40.73;36.70;;;7.40;99.90;;;;;;4923682;29;20470;-79
2021/04/30 03:53:50;;;;;;;39.27;35.27;;;7.40;99.90;;;;;;4921421;29;20449;-78
2021/04/30 03:56:17;;;;;;;43.17;38.60;;;7.40;99.90;;;;;;4919692;29;20443;-78
2021/04/30 03:58:45;;;;;;;41.83;37.37;;;7.40;99.90;;;;;;4922786;29;20843;-79
2021/04/30 04:01:12;;;;;;;40.00;35.80;;;7.30;99.90;;;;;;4926341;29;20456;-79
2021/04/30 04:03:39;;;;;;;38.37;34.60;;;7.30;99.90;;;;;;4919365;29;20469;-79
2021/04/30 04:06:06;;;;;;;40.80;36.77;;;7.30;99.90;;;;;;4918332;29;20545;-79
2021/04/30 04:08:33;;;;;;;41.50;37.17;;;7.30;99.90;;;;;;4918228;29;20455;-79
2021/04/30 04:11:01;;;;;;;43.15;38.55;;;7.30;99.90;;;;;;4917849;29;20537;-79
2021/04/30 04:13:29;;;;;;;43.50;38.80;;;7.30;99.90;;;;;;4918303;29;20763;-79
2021/04/30 04:16:03;;;;;;;40.60;36.20;;;7.20;99.90;;;;;;4919206;29;20462;-79
2021/04/30 04:18:30;;;;;;;43.57;38.93;;;7.20;99.90;;;;;;4919439;29;20435;-79
2021/04/30 04:20:58;;;;;;;40.13;36.00;;;7.20;99.90;;;;;;4923594;29;20831;-80
2021/04/30 04:23:26;;;;;;;43.03;38.30;;;7.20;99.90;;;;;;4925079;29;20501;-80
2021/04/30 04:25:53;;;;;;;42.60;38.30;;;7.20;99.90;;;;;;4923584;29;20531;-80
2021/04/30 04:28:21;;;;;;;43.87;39.17;;;7.20;99.90;;;;;;4925475;29;20466;-80
2021/04/30 04:30:51;;;;;;;40.43;35.93;;;7.20;99.90;;;;;;4923362;29;20483;-80
2021/04/30 04:33:18;;;;;;;41.27;37.13;;;7.20;99.90;;;;;;4924883;29;20585;-79
2021/04/30 04:35:46;;;;;;;42.30;37.67;;;7.20;99.90;;;;;;4927010;29;20451;-79
2021/04/30 04:38:13;;;;;;;42.63;38.23;;;7.20;99.90;;;;;;4920855;29;20455;-79
2021/04/30 04:40:40;;;;;;;45.23;40.60;;;7.20;99.90;;;;;;4917862;29;20540;-79
2021/04/30 04:43:08;;;;;;;46.77;41.77;;;7.20;99.90;;;;;;4922338;29;20479;-80
2021/04/30 04:45:36;;;;;;;47.10;42.10;;;7.20;99.90;;;;;;4924998;29;20450;-80
2021/04/30 04:48:04;;;;;;;45.10;40.30;;;7.20;99.90;;;;;;4925995;29;20518;-80
2021/04/30 04:50:31;;;;;;;45.73;40.90;;;7.30;99.90;;;;;;4925867;29;20482;-80
2021/04/30 04:53:18;;;;;;;46.67;42.03;;;7.30;99.90;;;;;;4921847;29;20493;-79
2021/04/30 04:55:45;;;;;;;46.50;41.60;;;7.30;99.90;;;;;;4918080;29;20546;-79
2021/04/30 04:58:12;;;;;;;46.60;41.63;;;7.30;99.90;;;;;;4923425;29;20454;-79
2021/04/30 05:00:40;;;;;;;44.90;40.03;;;7.30;99.90;;;;;;4924997;29;20485;-79
2021/04/30 05:03:08;;;;;;;46.17;41.30;;;7.40;99.90;;;;;;4923524;29;20467;-80
2021/04/30 05:05:35;;;;;;;44.17;39.33;;;7.40;99.90;;;;;;4923629;29;20444;-80
2021/04/30 05:08:02;;;;;;;44.17;39.37;;;7.40;99.90;;;;;;4922481;29;20483;-80
2021/04/30 05:10:29;;;;;;;42.40;37.87;;;7.40;99.90;;;;;;4923754;29;20543;-79
2021/04/30 05:12:56;;;;;;;44.63;38.73;;;7.40;99.90;;;;;;4917055;29;20577;-79
2021/04/30 05:15:24;;;;;;;44.23;39.67;;;7.50;99.90;;;;;;4917406;29;20475;-78
2021/04/30 05:17:52;;;;;;;44.40;39.40;;;7.50;99.90;;;;;;4918196;29;20456;-79
2021/04/30 05:20:19;;;;;;;44.50;39.90;;;7.50;99.90;;;;;;4919735;29;20453;-79
2021/04/30 05:22:46;;;;;;;44.13;39.67;;;7.60;99.90;;;;;;4923998;29;20487;-80
2021/04/30 05:25:15;;;;;;;44.17;39.47;;;7.60;99.90;;;;;;4922995;29;20462;-80
2021/04/30 05:27:42;;;;;;;44.63;40.00;;;7.60;99.90;;;;;;4922285;29;20460;-80
2021/04/30 05:30:12;;;;;;;44.57;40.13;;;7.60;99.90;;;;;;4921730;29;20448;-78
2021/04/30 05:32:39;;;;;;;41.40;37.10;;;7.70;99.90;;;;;;4917026;29;20999;-79
2021/04/30 05:35:08;;;;;;;43.10;38.90;;;7.70;99.90;;;;;;4918181;29;20969;-78
2021/04/30 05:37:35;;;;;;;41.97;37.57;;;7.80;99.90;;;;;;4918853;29;20452;-78
2021/04/30 05:40:03;;;;;;;41.53;37.17;;;7.80;99.90;;;;;;4920199;29;20542;-78
2021/04/30 05:42:31;;;;;;;40.57;36.27;;;7.80;99.90;;;;;;4917784;29;20467;-79
2021/04/30 05:45:00;;;;;;;44.10;39.70;;;7.90;99.90;;;;;;4919319;29;20451;-78
2021/04/30 05:47:27;;;;;;;43.97;39.47;;;7.90;99.90;;;;;;4918799;29;20445;-79
2021/04/30 05:49:54;;;;;;;42.25;37.75;;;8.00;99.90;;;;;;4920352;29;20467;-80
2021/04/30 05:52:22;;;;;;;40.87;36.57;;;8.00;99.90;;;;;;4924760;29;20246;-79
2021/04/30 05:54:49;;;;;;;45.97;38.70;;;8.10;99.90;;;;;;4925092;29;20498;-79
2021/04/30 05:57:18;;;;;;;44.33;37.57;;;8.10;99.90;;;;;;4917749;29;21021;-79
2021/04/30 05:59:45;;;;;;;43.35;38.75;;;8.10;99.90;;;;;;4916674;29;20491;-79
2021/04/30 06:02:12;;;;;;;38.03;33.97;;;8.20;99.90;;;;;;4918371;29;20222;-79
2021/04/30 06:04:39;;;;;;;42.10;36.37;;;8.30;99.90;;;;;;4919739;29;20447;-80
2021/04/30 06:07:07;;;;;;;41.40;35.90;;;8.30;99.90;;;;;;4918430;29;20962;-79
2021/04/30 06:09:35;;;;;;;41.97;37.60;;;8.40;99.90;;;;;;4919285;29;20479;-79
2021/04/30 06:12:02;;;;;;;42.07;37.80;;;8.40;99.90;;;;;;4917597;29;20501;-79
2021/04/30 06:14:32;;;;;;;43.90;39.40;;;8.50;99.90;;;;;;4918660;29;20478;-79
2021/04/30 06:17:00;;;;;;;41.90;35.97;;;8.70;99.90;;;;;;4917757;29;20464;-79
2021/04/30 06:19:30;;;;;;;40.93;36.67;;;8.90;99.90;;;;;;4918517;29;20444;-79
2021/04/30 06:21:57;;;;;;;42.30;36.17;;;9.10;99.90;;;;;;4918653;29;20476;-79
2021/04/30 06:24:26;;;;;;;39.90;36.00;;;9.30;99.90;;;;;;4917529;29;20823;-79
2021/04/30 06:26:55;;;;;;;36.87;32.87;;;9.30;99.90;;;;;;4918055;29;20444;-79
2021/04/30 06:29:22;;;;;;;38.20;34.40;;;9.40;99.90;;;;;;4922103;29;20503;-79
2021/04/30 06:31:49;;;;;;;36.70;32.80;;;9.40;99.90;;;;;;4922278;29;20472;-79
2021/04/30 06:34:16;;;;;;;39.43;35.13;;;9.40;99.90;;;;;;4924294;29;20447;-80
2021/04/30 06:36:43;;;;;;;37.90;33.63;;;9.40;99.90;;;;;;4924645;29;20467;-80
2021/04/30 06:39:11;;;;;;;37.17;33.43;;;9.50;99.90;;;;;;4922613;29;20484;-79
2021/04/30 06:41:38;;;;;;;36.77;33.07;;;9.50;99.90;;;;;;4917502;29;20899;-79
2021/04/30 06:44:06;;;;;;;35.60;31.70;;;9.80;99.90;;;;;;4922601;29;20441;-79
2021/04/30 06:46:36;;;;;;;35.27;31.67;;;10.00;99.90;;;;;;4923659;29;20816;-79
2021/04/30 06:49:04;;;;;;;34.60;31.00;;;10.30;99.90;;;;;;4924211;29;21002;-80
2021/04/30 06:51:32;;;;;;;33.53;29.97;;;10.50;99.90;;;;;;4919793;29;20887;-80
2021/04/30 06:54:00;;;;;;;33.87;30.47;;;10.60;99.90;;;;;;4924303;29;20458;-80
2021/04/30 06:56:29;;;;;;;33.80;29.80;;;10.90;99.90;;;;;;4925071;29;20437;-80
2021/04/30 06:58:56;;;;;;;30.43;27.40;;;11.10;99.90;;;;;;4921640;29;20469;-79
2021/04/30 07:01:25;;;;;;;30.13;27.30;;;11.30;99.90;;;;;;4916644;29;20465;-79
2021/04/30 07:03:52;;;;;;;30.60;25.13;;;11.50;99.90;;;;;;4917576;29;20551;-79
2021/04/30 07:06:20;;;;;;;27.43;24.93;;;11.70;99.90;;;;;;4916089;29;20484;-79
2021/04/30 07:08:48;;;;;;;27.20;24.70;;;11.90;99.90;;;;;;4920883;29;20489;-79
2021/04/30 07:11:15;;;;;;;23.60;21.30;;;12.00;99.90;;;;;;4898909;29;774002;-79
2021/04/30 07:13:42;;;;;;;28.90;25.80;;;12.20;99.90;;;;;;4921614;29;20492;-79
2021/04/30 07:16:10;;;;;;;27.70;24.70;;;12.30;99.90;;;;;;4917640;29;20497;-79
2021/04/30 07:18:38;;;;;;;25.67;23.30;;;12.50;99.90;;;;;;4919102;29;20461;-79
2021/04/30 07:21:06;;;;;;;25.67;23.10;;;12.60;99.90;;;;;;4922430;29;20431;-79
2021/04/30 07:23:34;;;;;;;25.23;22.83;;;12.60;99.90;;;;;;4918758;29;20481;-79
2021/04/30 07:26:01;;;;;;;23.27;21.07;;;12.70;99.90;;;;;;4919026;29;20492;-79
2021/04/30 07:28:28;;;;;;;22.40;20.50;;;12.70;99.90;;;;;;4928276;29;20989;-81
2021/04/30 07:30:56;;;;;;;23.90;21.70;;;12.70;99.90;;;;;;4929355;29;20415;-80
2021/04/30 07:33:23;;;;;;;23.70;21.37;;;12.60;99.90;;;;;;4922879;29;20591;-79
2021/04/30 07:35:52;;;;;;;26.10;23.60;;;12.60;99.90;;;;;;4921689;29;20456;-79
2021/04/30 07:38:19;;;;;;;24.57;22.27;;;12.70;99.90;;;;;;4922709;29;20431;-79
2021/04/30 07:40:46;;;;;;;25.15;22.75;;;12.80;99.90;;;;;;4922046;29;20438;-79
2021/04/30 07:43:15;;;;;;;23.00;20.70;;;13.00;99.90;;;;;;4920765;29;20276;-79
2021/04/30 07:45:43;;;;;;;23.57;21.43;;;13.20;99.90;;;;;;4922519;29;20437;-79
2021/04/30 07:48:12;;;;;;;24.13;21.93;;;13.30;99.90;;;;;;4920537;29;20445;-79
2021/04/30 07:50:41;;;;;;;21.77;19.87;;;13.40;99.90;;;;;;4920814;29;20457;-79
2021/04/30 07:53:09;;;;;;;24.33;22.03;;;13.30;99.90;;;;;;4922306;29;20462;-79
2021/04/30 07:55:36;;;;;;;22.10;20.10;;;13.30;99.90;;;;;;4922168;29;20837;-79
2021/04/30 07:58:04;;;;;;;21.60;19.70;;;13.20;99.90;;;;;;4921800;29;20934;-79
2021/04/30 08:00:31;;;;;;;21.80;19.90;;;13.20;99.90;;;;;;4922083;29;20448;-79
2021/04/30 08:02:58;;;;;;;20.90;19.03;;;13.30;99.90;;;;;;4921568;29;20451;-79
2021/04/30 08:05:27;;;;;;;20.13;18.40;;;13.40;99.90;;;;;;4920382;29;20451;-79
2021/04/30 08:07:54;;;;;;;21.53;19.47;;;13.50;99.90;;;;;;4921515;29;20419;-79
2021/04/30 08:10:22;;;;;;;22.80;20.70;;;13.70;99.90;;;;;;4920261;29;20484;-79
2021/04/30 08:12:49;;;;;;;21.50;19.60;;;13.70;99.90;;;;;;4926751;29;20482;-80
2021/04/30 08:15:16;;;;;;;20.87;18.97;;;13.90;99.90;;;;;;4928885;29;20503;-80
2021/04/30 08:17:43;;;;;;;22.90;20.87;;;14.00;99.90;;;;;;4920759;29;20419;-80
2021/04/30 08:20:12;;;;;;;21.30;19.23;;;14.10;99.90;;;;;;4926740;29;20526;-80
2021/04/30 08:22:39;;;;;;;20.77;18.83;;;14.30;99.90;;;;;;4925204;29;20521;-80
2021/04/30 08:25:07;;;;;;;22.50;20.50;;;14.30;99.90;;;;;;4920847;29;21032;-79
2021/04/30 08:27:36;;;;;;;23.80;21.67;;;14.30;99.90;;;;;;4924062;29;20520;-79
2021/04/30 08:30:05;;;;;;;22.30;20.27;;;14.40;99.90;;;;;;4929681;29;20451;-80
2021/04/30 08:32:32;;;;;;;21.83;19.73;;;14.30;99.90;;;;;;4921347;29;20485;-80
2021/04/30 08:35:00;;;;;;;22.90;20.90;;;14.40;99.90;;;;;;4921415;29;20481;-81
2021/04/30 08:37:27;;;;;;;22.60;20.60;;;14.50;99.90;;;;;;4919389;29;20477;-80
2021/04/30 08:39:55;;;;;;;22.33;20.33;;;14.50;99.90;;;;;;4921450;29;20536;-79
2021/04/30 08:42:22;;;;;;;23.77;21.67;;;14.70;99.90;;;;;;4924806;29;20470;-80
2021/04/30 08:44:50;;;;;;;21.77;19.87;;;14.60;99.90;;;;;;4930951;29;20475;-80
2021/04/30 08:47:19;;;;;;;23.87;21.70;;;14.60;99.90;;;;;;4926141;29;20446;-80
2021/04/30 08:49:48;;;;;;;23.87;21.70;;;14.60;99.90;;;;;;4926023;29;20423;-81
2021/04/30 08:52:16;;;;;;;22.40;20.40;;;14.70;99.90;;;;;;4936712;29;20488;-81
2021/04/30 08:54:43;;;;;;;21.90;20.00;;;14.80;99.90;;;;;;4925241;29;20435;-80
2021/04/30 08:57:11;;;;;;;20.87;19.13;;;15.00;99.90;;;;;;4920426;29;20603;-80
2021/04/30 08:59:38;;;;;;;20.43;18.63;;;15.10;99.90;;;;;;4920650;29;20536;-80
2021/04/30 09:02:06;;;;;;;23.23;21.17;;;15.20;99.90;;;;;;4920265;29;20476;-80
2021/04/30 09:04:35;;;;;;;22.40;20.33;;;15.20;99.90;;;;;;4919985;29;20457;-79
2021/04/30 09:07:13;;;;;;;23.30;21.20;;;15.30;99.90;;;;;;4933674;29;20468;-80
2021/04/30 09:09:56;;;;;;;23.93;21.70;;;15.30;99.90;;;;;;4923806;29;20484;-80
2021/04/30 09:12:24;;;;;;;22.93;20.83;;;15.20;99.90;;;;;;4920874;29;20463;-80
2021/04/30 09:14:51;;;;;;;24.97;22.57;;;15.10;99.90;;;;;;4921281;29;20463;-80
2021/04/30 09:17:20;;;;;;;24.47;22.37;;;15.10;99.90;;;;;;4920226;29;20461;-80
2021/04/30 09:19:51;;;;;;;24.23;22.13;;;15.20;99.90;;;;;;4923348;29;20447;-80
2021/04/30 09:22:21;;;;;;;27.50;25.10;;;15.40;99.90;;;;;;4926380;29;20706;-80
2021/04/30 09:24:54;;;;;;;24.43;22.33;;;15.50;99.90;;;;;;4921901;29;20440;-80
2021/04/30 09:27:39;;;;;;;26.47;24.07;;;15.70;99.90;;;;;;4920298;29;20444;-80
2021/04/30 09:30:21;;;;;;;24.40;22.30;;;15.80;99.90;;;;;;4918715;29;20536;-80
2021/04/30 09:33:07;;;;;;;25.00;22.80;;;15.70;99.90;;;;;;4921622;29;20508;-80
2021/04/30 09:35:37;;;;;;;24.50;22.47;;;15.60;99.90;;;;;;4926116;29;20466;-79
2021/04/30 09:38:19;;;;;;;21.47;19.50;;;15.50;99.90;;;;;;4929455;29;20457;-79
2021/04/30 09:40:47;;;;;;;24.83;22.67;;;15.40;99.90;;;;;;4925906;29;20460;-80
2021/04/30 09:43:16;;;;;;;21.93;20.13;;;15.50;99.90;;;;;;4924649;29;20477;-80
2021/04/30 09:45:45;;;;;;;22.90;20.93;;;15.40;99.90;;;;;;4925108;29;20453;-80
2021/04/30 09:48:15;;;;;;;27.43;25.13;;;15.50;99.90;;;;;;4929279;29;20463;-80
2021/04/30 09:50:44;;;;;;;28.50;25.83;;;15.50;99.90;;;;;;4922562;29;20945;-80
2021/04/30 09:53:13;;;;;;;26.43;24.30;;;15.50;99.90;;;;;;4922461;29;20476;-80
2021/04/30 09:55:42;;;;;;;24.93;22.73;;;15.50;99.90;;;;;;4929882;29;20449;-80
2021/04/30 09:58:15;;;;;;;23.17;21.20;;;15.40;99.90;;;;;;4921542;29;21033;-81
2021/04/30 10:00:42;;;;;;;23.00;21.00;;;15.60;99.90;;;;;;4919902;29;20441;-80
2021/04/30 10:03:15;;;;;;;18.20;16.60;;;15.70;99.90;;;;;;4919256;29;20568;-81
2021/04/30 10:06:11;;;;;;;15.77;14.37;;;15.80;99.90;;;;;;4920712;29;20952;-81
2021/04/30 10:08:38;;;;;;;17.07;15.53;;;15.80;99.90;;;;;;4922509;29;20457;-81
2021/04/30 10:11:29;;;;;;;17.17;15.77;;;15.80;99.90;;;;;;4927871;29;20500;-79
2021/04/30 10:13:57;;;;;;;16.77;15.37;;;15.80;99.90;;;;;;4918808;29;20476;-79
2021/04/30 10:16:24;;;;;;;18.40;16.90;;;15.80;99.90;;;;;;4919202;29;20449;-79
2021/04/30 10:18:52;;;;;;;18.17;16.70;;;15.80;99.90;;;;;;4918806;29;20512;-80
2021/04/30 10:21:20;;;;;;;17.97;16.47;;;15.80;99.90;;;;;;4917918;29;20867;-80
2021/04/30 10:23:49;;;;;;;16.47;15.07;;;15.80;99.90;;;;;;4919716;29;20507;-80
2021/04/30 10:26:18;;;;;;;15.77;14.47;;;15.80;99.90;;;;;;4918926;29;20449;-80
2021/04/30 10:28:49;;;;;;;15.10;13.90;;;15.70;99.40;;;;;;4919557;29;20501;-80
2021/04/30 10:31:22;;;;;;;15.67;14.37;;;15.60;99.30;;;;;;4919274;29;20473;-80
2021/04/30 10:33:55;;;;;;;17.67;16.10;;;15.50;99.00;;;;;;4920817;29;20500;-80
2021/04/30 10:36:29;;;;;;;16.27;14.87;;;15.40;98.80;;;;;;4923387;29;20412;-81
2021/04/30 10:38:58;;;;;;;19.90;18.20;;;15.30;98.80;;;;;;4922850;29;20481;-82
2021/04/30 10:41:31;;;;;;;18.07;16.57;;;15.20;98.70;;;;;;4925375;29;20463;-82
2021/04/30 10:44:15;;;;;;;17.27;15.87;;;15.20;98.90;;;;;;4933510;29;20504;-82
2021/04/30 10:46:44;;;;;;;17.37;15.93;;;15.20;98.90;;;;;;4928258;29;20452;-82
2021/04/30 10:49:16;;;;;;;18.40;16.90;;;15.20;99.00;;;;;;4921150;29;20571;-81
2021/04/30 10:52:05;;;;;;;17.40;16.00;;;15.20;99.10;;;;;;4921945;29;20436;-81
2021/04/30 10:54:34;;;;;;;17.20;15.80;;;15.30;98.90;;;;;;4927084;29;20442;-81
2021/04/30 10:57:03;;;;;;;17.83;16.30;;;15.50;99.10;;;;;;4921708;29;20435;-80
2021/04/30 10:59:43;;;;;;;16.77;15.30;;;15.60;99.00;;;;;;4920507;29;20804;-80
2021/04/30 11:02:11;;;;;;;12.77;11.83;;;15.70;98.90;;;;;;4925675;29;20460;-80
2021/04/30 11:05:17;;;;;;;11.47;10.60;;;15.70;98.80;;;;;;4924913;29;20445;-80
2021/04/30 11:07:47;;;;;;;9.90;9.10;;;15.70;98.40;;;;;;4922689;29;20427;-80
2021/04/30 11:10:39;;;;;;;10.80;9.93;;;15.70;98.30;;;;;;4922453;29;20448;-80
2021/04/30 11:13:14;;;;;;;10.07;9.23;;;15.70;97.90;;;;;;4923366;29;20571;-80
2021/04/30 11:15:57;;;;;;;9.60;8.80;;;15.60;97.90;;;;;;4927218;29;20456;-80
2021/04/30 11:18:25;;;;;;;8.60;8.00;;;15.60;97.90;;;;;;4924511;29;20460;-80
2021/04/30 11:21:05;;;;;;;9.33;8.53;;;15.60;97.70;;;;;;4923861;29;20444;-80
2021/04/30 11:23:41;;;;;;;9.63;8.83;;;15.60;97.50;;;;;;4922224;29;20858;-80
2021/04/30 11:26:13;;;;;;;11.03;8.20;;;15.60;97.30;;;;;;4923598;29;20440;-80
2021/04/30 11:29:06;;;;;;;9.90;9.10;;;15.60;97.20;;;;;;4922268;29;20427;-80
2021/04/30 11:31:35;;;;;;;11.70;10.70;;;15.60;96.70;;;;;;4920564;29;20455;-80
2021/04/30 11:34:24;;;;;;;10.10;9.30;;;15.60;95.50;;;;;;4927755;29;20221;-80
2021/04/30 11:36:56;;;;;;;9.23;8.53;;;15.60;95.80;;;;;;4920176;29;20870;-80
2021/04/30 11:39:26;;;;;;;9.07;8.27;;;15.60;96.10;;;;;;4923273;29;20439;-80
2021/04/30 11:41:59;;;;;;;11.40;10.50;;;15.50;96.20;;;;;;4921735;29;20946;-81
2021/04/30 11:44:26;;;;;;;9.87;9.07;;;15.60;95.30;;;;;;4922424;29;20610;-80
2021/04/30 11:47:01;;;;;;;10.17;9.33;;;15.60;95.30;;;;;;4921908;29;20536;-80
2021/04/30 11:49:31;;;;;;;10.50;9.60;;;15.70;95.50;;;;;;4922367;29;20426;-80
2021/04/30 11:52:00;;;;;;;10.90;10.07;;;15.70;95.60;;;;;;4922874;29;20445;-81
2021/04/30 11:54:29;;;;;;;10.20;9.50;;;15.70;95.50;;;;;;4922263;29;20483;-80
2021/04/30 11:57:00;;;;;;;9.53;8.83;;;15.80;95.40;;;;;;4921657;29;20441;-80
2021/04/30 11:59:28;;;;;;;9.10;8.40;;;15.80;95.40;;;;;;4923862;29;20531;-80
2021/04/30 12:01:57;;;;;;;9.03;8.40;;;15.80;95.40;;;;;;4923693;29;20520;-81
2021/04/30 12:04:44;;;;;;;9.13;8.50;;;15.90;95.30;;;;;;4925890;29;20425;-80
2021/04/30 12:07:34;;;;;;;9.23;8.43;;;15.90;95.20;;;;;;4924122;29;20459;-80
2021/04/30 12:10:04;;;;;;;8.47;7.67;;;16.00;95.10;;;;;;4925486;29;20524;-81
2021/04/30 12:12:31;;;;;;;10.00;9.10;;;16.00;95.00;;;;;;4920177;29;20916;-81
2021/04/30 12:15:01;;;;;;;9.53;8.80;;;16.10;94.90;;;;;;4921580;29;20512;-81
2021/04/30 12:17:37;;;;;;;7.30;6.70;;;16.20;94.90;;;;;;4926384;29;20445;-82
2021/04/30 12:20:10;;;;;;;8.50;7.80;;;16.30;94.70;;;;;;4925392;29;20886;-82
2021/04/30 12:23:00;;;;;;;8.30;7.57;;;16.20;94.40;;;;;;4924823;29;20620;-82
2021/04/30 12:25:40;;;;;;;7.70;7.10;;;16.20;94.20;;;;;;4924822;29;20517;-82
2021/04/30 12:28:27;;;;;;;7.57;6.97;;;16.30;94.20;;;;;;4925726;29;20452;-80
2021/04/30 12:30:58;;;;;;;7.47;6.87;;;16.40;94.20;;;;;;4923119;29;20444;-80
2021/04/30 12:33:35;;;;;;;7.80;7.17;;;16.50;94.10;;;;;;4923874;29;20549;-81
2021/04/30 12:36:09;;;;;;;6.80;6.30;;;16.50;94.00;;;;;;4923534;29;20448;-81
2021/04/30 12:38:39;;;;;;;7.87;7.27;;;16.50;93.60;;;;;;4944723;29;20452;-82
2021/04/30 12:41:09;;;;;;;8.77;8.07;;;16.50;93.40;;;;;;4944868;29;20436;-81
2021/04/30 12:43:38;;;;;;;8.30;7.63;;;16.50;93.00;;;;;;4944262;29;20213;-81
2021/04/30 12:46:15;;;;;;;7.30;6.80;;;16.40;92.90;;;;;;4934881;29;20471;-80